Time,TemperatureF,DewpointF,PressureIn,WindDirection,WindDirectionDegrees,WindSpeedMPH,WindSpeedGustMPH,Humidity,HourlyPrecipIn,Conditions,Clouds,dailyrainin,SoftwareType,DateUTC
2013-11-06 00:01:00,54.4,37.6,30.32,WSW,242,0.0,5.0,53,0.00,OVC,,0.00,WeatherDisplay:10.37,2013-11-06 05:01:00,
2013-11-06 00:10:00,54.4,38.1,30.32,WSW,242,0.0,2.0,54,0.00,SCT,,0.00,WeatherDisplay:10.37,2013-11-06 05:10:00,
2013-11-06 00:20:00,54.4,39.0,30.32,WSW,242,0.0,2.0,56,0.00,SCT,,0.00,WeatherDisplay:10.37,2013-11-06 05:20:00,
2013-11-06 00:31:00,54.4,39.5,30.32,SW,216,1.0,6.0,57,0.00,SCT,,0.00,WeatherDisplay:10.37,2013-11-06 05:31:00,
2013-11-06 00:40:00,54.8,40.3,30.32,SW,236,2.0,6.0,58,0.00,SCT,,0.00,WeatherDisplay:10.37,2013-11-06 05:40:00,
2013-11-06 00:50:00,55.0,40.9,30.32,SSE,154,3.0,6.0,59,0.00,BKN,,0.00,WeatherDisplay:10.37,2013-11-06 05:50:00,
2013-11-06 01:01:00,55.3,41.2,30.31,SSW,201,0.0,6.0,59,0.00,BKN,,0.00,WeatherDisplay:10.37,2013-11-06 06:01:00,
2013-11-06 01:10:00,55.4,41.7,30.31,SW,228,3.0,7.0,60,0.00,OVC,,0.00,WeatherDisplay:10.37,2013-11-06 06:10:00,
2013-11-06 01:20:00,55.5,41.8,30.31,SSW,202,3.0,7.0,60,0.00,OVC,,0.00,WeatherDisplay:10.37,2013-11-06 06:20:00,
2013-11-06 01:31:00,55.6,42.4,30.31,SW,223,3.0,5.0,61,0.00,OVC,,0.00,WeatherDisplay:10.37,2013-11-06 06:31:00,
2013-11-06 01:40:00,55.6,42.4,30.30,SW,230,0.0,5.0,61,0.00,OVC,,0.00,WeatherDisplay:10.37,2013-11-06 06:40:00,
2013-11-06 01:50:00,55.6,42.8,30.30,SW,231,2.0,4.0,62,0.00,OVC,,0.00,WeatherDisplay:10.37,2013-11-06 06:50:00,
2013-11-06 02:01:00,55.6,43.2,30.29,SW,232,0.0,2.0,63,0.00,OVC,,0.00,WeatherDisplay:10.37,2013-11-06 07:01:00,
2013-11-06 02:10:00,55.7,43.3,30.29,SW,231,0.0,5.0,63,0.00,OVC,,0.00,WeatherDisplay:10.37,2013-11-06 07:10:00,
2013-11-06 02:20:00,55.8,44.2,30.29,SW,233,1.0,4.0,65,0.00,OVC,,0.00,WeatherDisplay:10.37,2013-11-06 07:20:00,
2013-11-06 02:31:00,56.0,45.2,30.29,SW,224,2.0,6.0,67,0.00,OVC,,0.00,WeatherDisplay:10.37,2013-11-06 07:31:00,
2013-11-06 02:40:00,56.2,45.8,30.28,SW,220,2.0,6.0,68,0.00,-RA,,0.00,WeatherDisplay:10.37,2013-11-06 07:40:00,
2013-11-06 02:50:00,56.3,46.3,30.28,SSW,205,3.0,6.0,69,0.00,OVC,,0.00,WeatherDisplay:10.37,2013-11-06 07:50:00,
2013-11-06 03:01:00,56.3,47.4,30.27,SW,229,1.0,6.0,72,0.00,OVC,,0.00,WeatherDisplay:10.37,2013-11-06 08:01:00,
2013-11-06 03:10:00,56.3,48.1,30.27,SSW,211,2.0,7.0,74,0.00,OVC,,0.00,WeatherDisplay:10.37,2013-11-06 08:10:00,
2013-11-06 03:20:00,56.4,48.2,30.27,SSW,207,2.0,5.0,74,0.00,OVC,,0.00,WeatherDisplay:10.37,2013-11-06 08:20:00,
2013-11-06 03:31:00,56.5,48.7,30.27,SW,226,3.0,6.0,75,0.00,OVC,,0.00,WeatherDisplay:10.37,2013-11-06 08:31:00,
2013-11-06 03:40:00,56.7,49.6,30.27,SSW,207,0.0,7.0,77,0.00,OVC,,0.00,WeatherDisplay:10.37,2013-11-06 08:40:00,
2013-11-06 03:50:00,56.9,50.1,30.27,SSW,203,2.0,6.0,78,0.00,OVC,,0.00,WeatherDisplay:10.37,2013-11-06 08:50:00,
2013-11-06 04:01:00,56.8,51.0,30.26,SW,231,3.0,7.0,81,0.00,OVC,,0.00,WeatherDisplay:10.37,2013-11-06 09:01:00,
2013-11-06 04:10:00,56.8,52.0,30.26,South,175,3.0,8.0,84,0.00,OVC,,0.00,WeatherDisplay:10.37,2013-11-06 09:10:00,
2013-11-06 04:20:00,56.7,51.9,30.26,SSE,168,3.0,8.0,84,0.00,OVC,,0.00,WeatherDisplay:10.37,2013-11-06 09:20:00,
2013-11-06 04:31:00,56.6,52.1,30.25,SSW,202,1.0,8.0,85,0.00,OVC,,0.00,WeatherDisplay:10.37,2013-11-06 09:31:00,
2013-11-06 04:40:00,56.5,52.0,30.25,WSW,241,0.0,6.0,85,0.00,OVC,,0.00,WeatherDisplay:10.37,2013-11-06 09:40:00,
2013-11-06 04:50:00,56.3,51.8,30.25,WSW,248,1.0,9.0,85,0.00,OVC,,0.00,WeatherDisplay:10.37,2013-11-06 09:50:00,
2013-11-06 05:01:00,56.2,51.7,30.25,SW,229,5.0,7.0,85,0.00,OVC,,0.00,WeatherDisplay:10.37,2013-11-06 10:01:00,
2013-11-06 05:10:00,56.2,51.7,30.26,SSW,212,3.0,9.0,85,0.00,OVC,,0.00,WeatherDisplay:10.37,2013-11-06 10:10:00,
2013-11-06 05:20:00,56.2,52.1,30.25,SW,228,3.0,7.0,86,0.00,OVC,,0.00,WeatherDisplay:10.37,2013-11-06 10:20:00,
2013-11-06 05:31:00,56.3,52.1,30.26,SW,231,2.0,7.0,86,0.00,OVC,,0.00,WeatherDisplay:10.37,2013-11-06 10:31:00,
2013-11-06 05:40:00,56.3,52.2,30.26,SW,231,1.0,7.0,86,0.00,OVC,,0.00,WeatherDisplay:10.37,2013-11-06 10:40:00,
2013-11-06 05:50:00,56.1,52.6,30.26,WSW,241,1.0,5.0,88,0.00,OVC,,0.00,WeatherDisplay:10.37,2013-11-06 10:50:00,
2013-11-06 06:01:00,55.8,52.6,30.26,SW,222,2.0,5.0,89,0.00,OVC,,0.00,WeatherDisplay:10.37,2013-11-06 11:01:00,
2013-11-06 06:10:00,55.7,52.5,30.26,SW,230,1.0,6.0,89,0.00,OVC,,0.00,WeatherDisplay:10.37,2013-11-06 11:10:00,
2013-11-06 06:20:00,55.4,52.5,30.26,SW,215,1.0,9.0,90,0.00,OVC,,0.00,WeatherDisplay:10.37,2013-11-06 11:20:00,
2013-11-06 06:31:00,55.3,52.7,30.26,SW,232,3.0,7.0,91,0.00,OVC,,0.00,WeatherDisplay:10.37,2013-11-06 11:31:00,
2013-11-06 06:40:00,55.3,52.7,30.25,SSW,194,1.0,5.0,91,0.00,OVC,,0.00,WeatherDisplay:10.37,2013-11-06 11:40:00,
2013-11-06 06:50:00,55.3,52.7,30.25,WSW,240,1.0,7.0,91,0.00,OVC,,0.00,WeatherDisplay:10.37,2013-11-06 11:50:00,
2013-11-06 07:01:00,55.3,52.7,30.26,SW,225,0.0,3.0,91,0.00,OVC,,0.00,WeatherDisplay:10.37,2013-11-06 12:01:00,
2013-11-06 07:10:00,55.4,53.1,30.26,WSW,237,0.0,5.0,92,0.00,-DZ,,0.00,WeatherDisplay:10.37,2013-11-06 12:10:00,
2013-11-06 07:20:00,55.3,53.0,30.26,WSW,239,2.0,6.0,92,0.00,-DZ,,0.00,WeatherDisplay:10.37,2013-11-06 12:20:00,
2013-11-06 07:31:00,55.2,53.2,30.26,WSW,244,0.0,7.0,93,0.00,-DZ,,0.00,WeatherDisplay:10.37,2013-11-06 12:31:00,
2013-11-06 07:40:00,55.2,53.2,30.26,SW,216,0.0,5.0,93,0.00,OVC,,0.00,WeatherDisplay:10.37,2013-11-06 12:40:00,
2013-11-06 07:50:00,55.3,53.3,30.26,WSW,251,2.0,7.0,93,0.01,-RA,,0.01,WeatherDisplay:10.37,2013-11-06 12:50:00,
2013-11-06 08:01:00,55.6,53.6,30.26,WSW,242,1.0,8.0,93,0.00,-RA,,0.01,WeatherDisplay:10.37,2013-11-06 13:01:00,
2013-11-06 08:10:00,55.8,53.8,30.26,WSW,238,3.0,8.0,93,0.00,BKN,,0.01,WeatherDisplay:10.37,2013-11-06 13:10:00,
2013-11-06 08:20:00,56.2,54.2,30.26,SW,232,5.0,7.0,93,0.00,BKN,,0.01,WeatherDisplay:10.37,2013-11-06 13:20:00,
2013-11-06 08:31:00,56.7,54.4,30.26,WSW,244,7.0,13.0,92,0.00,BKN,,0.01,WeatherDisplay:10.37,2013-11-06 13:31:00,
2013-11-06 08:40:00,57.2,54.6,30.27,SW,222,3.0,12.0,91,0.00,BKN,,0.01,WeatherDisplay:10.37,2013-11-06 13:40:00,
2013-11-06 08:50:00,57.4,54.5,30.27,WSW,240,5.0,12.0,90,0.00,OVC,,0.01,WeatherDisplay:10.37,2013-11-06 13:50:00,
2013-11-06 09:01:00,57.5,54.6,30.26,WSW,240,5.0,10.0,90,0.00,OVC,,0.01,WeatherDisplay:10.37,2013-11-06 14:01:00,
2013-11-06 09:10:00,57.6,55.0,30.27,WSW,239,6.0,14.0,91,0.00,OVC,,0.01,WeatherDisplay:10.37,2013-11-06 14:10:00,
2013-11-06 09:20:00,58.2,55.0,30.27,SW,226,7.0,10.0,89,0.00,OVC,,0.01,WeatherDisplay:10.37,2013-11-06 14:20:00,
2013-11-06 09:31:00,58.4,54.9,30.27,WSW,238,5.0,8.0,88,0.00,OVC,,0.01,WeatherDisplay:10.37,2013-11-06 14:31:00,
2013-11-06 09:40:00,58.6,54.7,30.27,SSW,207,3.0,9.0,87,0.00,OVC,,0.01,WeatherDisplay:10.37,2013-11-06 14:40:00,
2013-11-06 09:50:00,59.2,55.3,30.27,SSW,193,3.0,9.0,87,0.00,OVC,,0.01,WeatherDisplay:10.37,2013-11-06 14:50:00,
2013-11-06 10:01:00,60.1,55.5,30.26,SSW,204,5.0,12.0,85,0.00,OVC,,0.01,WeatherDisplay:10.37,2013-11-06 15:01:00,
2013-11-06 10:10:00,60.7,56.2,30.26,SW,217,6.0,13.0,85,0.00,OVC,,0.01,WeatherDisplay:10.37,2013-11-06 15:10:00,
2013-11-06 10:20:00,61.5,56.3,30.26,SSW,201,3.0,12.0,83,0.00,OVC,,0.01,WeatherDisplay:10.37,2013-11-06 15:20:00,
2013-11-06 10:31:00,63.1,57.1,30.26,SSW,198,7.0,15.0,81,0.00,OVC,,0.01,WeatherDisplay:10.37,2013-11-06 15:31:00,
2013-11-06 10:40:00,63.8,57.2,30.26,SW,215,5.0,12.0,79,0.00,OVC,,0.01,WeatherDisplay:10.37,2013-11-06 15:40:00,
2013-11-06 10:50:00,64.1,56.7,30.26,SW,219,5.0,14.0,77,0.00,OVC,,0.01,WeatherDisplay:10.37,2013-11-06 15:50:00,
2013-11-06 11:01:00,64.3,56.9,30.26,SW,223,6.0,18.0,77,0.00,OVC,,0.01,WeatherDisplay:10.37,2013-11-06 16:01:00,
2013-11-06 11:10:00,64.5,56.8,30.26,SW,223,5.0,14.0,76,0.00,OVC,,0.01,WeatherDisplay:10.37,2013-11-06 16:10:00,
2013-11-06 11:20:00,64.9,57.2,30.26,SSW,192,3.0,10.0,76,0.00,OVC,,0.01,WeatherDisplay:10.37,2013-11-06 16:20:00,
2013-11-06 11:31:00,65.4,56.9,30.26,SW,218,9.0,18.0,74,0.00,OVC,,0.01,WeatherDisplay:10.37,2013-11-06 16:31:00,
2013-11-06 11:40:00,65.7,57.2,30.25,SSW,213,5.0,12.0,74,0.00,OVC,,0.01,WeatherDisplay:10.37,2013-11-06 16:40:00,
2013-11-06 11:50:00,66.5,57.5,30.24,SW,220,5.0,16.0,73,0.00,BKN,,0.01,WeatherDisplay:10.37,2013-11-06 16:50:00,
2013-11-06 12:01:00,67.2,57.5,30.24,South,178,6.0,13.0,71,0.00,BKN,,0.01,WeatherDisplay:10.37,2013-11-06 17:01:00,
2013-11-06 12:10:00,67.6,57.5,30.23,South,174,5.0,15.0,70,0.00,OVC,,0.01,WeatherDisplay:10.37,2013-11-06 17:10:00,
2013-11-06 12:20:00,67.6,57.9,30.22,South,180,1.0,12.0,71,0.00,OVC,,0.01,WeatherDisplay:10.37,2013-11-06 17:20:00,
2013-11-06 12:31:00,68.8,58.2,30.22,SSW,211,7.0,12.0,69,0.00,OVC,,0.01,WeatherDisplay:10.37,2013-11-06 17:31:00,
2013-11-06 12:40:00,68.9,58.3,30.21,SW,216,7.0,15.0,69,0.00,OVC,,0.01,WeatherDisplay:10.37,2013-11-06 17:40:00,
2013-11-06 12:50:00,69.2,57.7,30.20,SSW,211,6.0,12.0,67,0.00,BKN,,0.01,WeatherDisplay:10.37,2013-11-06 17:50:00,
2013-11-06 13:01:00,68.5,57.9,30.20,SW,228,2.0,12.0,69,0.00,BKN,,0.01,WeatherDisplay:10.37,2013-11-06 18:01:00,
2013-11-06 13:10:00,69.0,58.0,30.19,SW,223,6.0,10.0,68,0.00,BKN,,0.01,WeatherDisplay:10.37,2013-11-06 18:10:00,
2013-11-06 13:20:00,69.4,58.4,30.18,SW,227,5.0,14.0,68,0.00,BKN,,0.01,WeatherDisplay:10.37,2013-11-06 18:20:00,
2013-11-06 13:31:00,70.5,58.6,30.17,SSW,207,7.0,12.0,66,0.00,BKN,,0.01,WeatherDisplay:10.37,2013-11-06 18:31:00,
2013-11-06 13:40:00,70.4,58.5,30.17,SW,234,7.0,13.0,66,0.00,BKN,,0.01,WeatherDisplay:10.37,2013-11-06 18:40:00,
2013-11-06 13:50:00,69.8,58.3,30.17,SW,226,3.0,12.0,67,0.00,BKN,,0.01,WeatherDisplay:10.37,2013-11-06 18:50:00,
2013-11-06 14:01:00,69.7,58.3,30.17,SW,217,5.0,12.0,67,0.00,BKN,,0.01,WeatherDisplay:10.37,2013-11-06 19:01:00,
2013-11-06 14:10:00,69.7,58.3,30.16,SSW,206,5.0,8.0,67,0.00,SCT,,0.01,WeatherDisplay:10.37,2013-11-06 19:10:00,
2013-11-06 14:20:00,69.9,58.4,30.16,South,173,2.0,9.0,67,0.00,SCT,,0.01,WeatherDisplay:10.37,2013-11-06 19:20:00,
2013-11-06 14:31:00,69.9,58.4,30.16,SW,225,5.0,10.0,67,0.00,SCT,,0.01,WeatherDisplay:10.37,2013-11-06 19:31:00,
2013-11-06 14:40:00,70.0,58.5,30.16,SW,226,7.0,13.0,67,0.00,SCT,,0.01,WeatherDisplay:10.37,2013-11-06 19:40:00,
2013-11-06 14:50:00,70.1,58.2,30.15,SSW,209,6.0,12.0,66,0.00,BKN,,0.01,WeatherDisplay:10.37,2013-11-06 19:50:00,
2013-11-06 15:01:00,70.0,58.1,30.15,SW,226,2.0,8.0,66,0.00,BKN,,0.01,WeatherDisplay:10.37,2013-11-06 20:01:00,
2013-11-06 15:10:00,70.0,58.5,30.14,SW,221,5.0,12.0,67,0.00,OVC,,0.01,WeatherDisplay:10.37,2013-11-06 20:10:00,
2013-11-06 15:20:00,70.1,58.2,30.14,SSW,211,3.0,10.0,66,0.00,OVC,,0.01,WeatherDisplay:10.37,2013-11-06 20:20:00,
2013-11-06 15:31:00,70.4,58.9,30.14,SW,217,2.0,7.0,67,0.00,OVC,,0.01,WeatherDisplay:10.37,2013-11-06 20:31:00,
2013-11-06 15:40:00,70.4,58.5,30.13,South,183,2.0,12.0,66,0.00,OVC,,0.01,WeatherDisplay:10.37,2013-11-06 20:40:00,
2013-11-06 15:50:00,70.4,58.5,30.13,South,191,5.0,7.0,66,0.00,OVC,,0.01,WeatherDisplay:10.37,2013-11-06 20:50:00,
2013-11-06 16:01:00,70.8,59.3,30.13,SSW,197,3.0,7.0,67,0.00,OVC,,0.01,WeatherDisplay:10.37,2013-11-06 21:01:00,
2013-11-06 16:10:00,71.3,58.9,30.13,South,188,5.0,12.0,65,0.00,OVC,,0.01,WeatherDisplay:10.37,2013-11-06 21:10:00,
2013-11-06 16:20:00,71.0,58.6,30.12,SSW,203,3.0,10.0,65,0.00,OVC,,0.01,WeatherDisplay:10.37,2013-11-06 21:20:00,
2013-11-06 16:31:00,70.7,58.8,30.13,South,172,2.0,12.0,66,0.00,OVC,,0.01,WeatherDisplay:10.37,2013-11-06 21:31:00,
2013-11-06 16:40:00,70.4,58.9,30.12,South,178,0.0,9.0,67,0.00,OVC,,0.01,WeatherDisplay:10.37,2013-11-06 21:40:00,
2013-11-06 16:50:00,70.2,58.7,30.12,South,191,3.0,8.0,67,0.00,OVC,,0.01,WeatherDisplay:10.37,2013-11-06 21:50:00,
2013-11-06 17:01:00,70.0,58.6,30.12,SSW,202,1.0,8.0,67,0.00,OVC,,0.01,WeatherDisplay:10.37,2013-11-06 22:01:00,
2013-11-06 17:10:00,69.9,58.4,30.12,SSW,199,2.0,9.0,67,0.00,OVC,,0.01,WeatherDisplay:10.37,2013-11-06 22:10:00,
2013-11-06 17:20:00,69.7,58.7,30.12,SSW,211,1.0,8.0,68,0.00,OVC,,0.01,WeatherDisplay:10.37,2013-11-06 22:20:00,
2013-11-06 17:31:00,69.5,58.5,30.11,SW,217,3.0,6.0,68,0.00,OVC,,0.01,WeatherDisplay:10.37,2013-11-06 22:31:00,
2013-11-06 17:40:00,69.2,58.6,30.11,SW,230,1.0,6.0,69,0.00,OVC,,0.01,WeatherDisplay:10.37,2013-11-06 22:40:00,
2013-11-06 17:50:00,69.0,58.8,30.11,SW,214,0.0,4.0,70,0.00,OVC,,0.01,WeatherDisplay:10.37,2013-11-06 22:50:00,
2013-11-06 18:01:00,68.7,58.9,30.11,SSW,209,0.0,3.0,71,0.00,OVC,,0.01,WeatherDisplay:10.37,2013-11-06 23:01:00,
2013-11-06 18:10:00,68.5,58.7,30.11,SSW,212,1.0,4.0,71,0.00,OVC,,0.01,WeatherDisplay:10.37,2013-11-06 23:10:00,
2013-11-06 18:20:00,68.1,58.7,30.12,SW,217,0.0,4.0,72,0.00,OVC,,0.01,WeatherDisplay:10.37,2013-11-06 23:20:00,
2013-11-06 18:31:00,67.7,58.7,30.12,SW,217,0.0,2.0,73,0.00,OVC,,0.01,WeatherDisplay:10.37,2013-11-06 23:31:00,
2013-11-06 18:40:00,67.3,58.7,30.12,SW,217,1.0,3.0,74,0.00,OVC,,0.01,WeatherDisplay:10.37,2013-11-06 23:40:00,
2013-11-06 18:50:00,67.0,58.8,30.12,SW,217,1.0,3.0,75,0.00,OVC,,0.01,WeatherDisplay:10.37,2013-11-06 23:50:00,
2013-11-06 19:01:00,66.9,58.7,30.12,SW,217,1.0,3.0,75,0.00,OVC,,0.01,WeatherDisplay:10.37,2013-11-07 00:01:00,
2013-11-06 19:10:00,66.8,58.6,30.12,SW,227,0.0,4.0,75,0.00,OVC,,0.01,WeatherDisplay:10.37,2013-11-07 00:10:00,
2013-11-06 19:20:00,66.6,58.8,30.12,SW,226,0.0,3.0,76,0.00,OVC,,0.01,WeatherDisplay:10.37,2013-11-07 00:20:00,
2013-11-06 19:31:00,66.3,58.5,30.11,SW,226,1.0,2.0,76,0.00,OVC,,0.01,WeatherDisplay:10.37,2013-11-07 00:31:00,
2013-11-06 19:40:00,65.7,58.3,30.11,SW,227,2.0,4.0,77,0.00,OVC,,0.01,WeatherDisplay:10.37,2013-11-07 00:40:00,
2013-11-06 19:50:00,65.2,58.2,30.11,SW,227,0.0,3.0,78,0.00,BKN,,0.01,WeatherDisplay:10.37,2013-11-07 00:50:00,
2013-11-06 20:01:00,64.8,58.1,30.11,SW,227,0.0,2.0,79,0.00,BKN,,0.01,WeatherDisplay:10.37,2013-11-07 01:01:00,
2013-11-06 20:10:00,64.4,58.1,30.10,SW,227,1.0,4.0,80,0.00,SCT,,0.01,WeatherDisplay:10.37,2013-11-07 01:10:00,
2013-11-06 20:20:00,64.2,58.3,30.10,WSW,248,2.0,5.0,81,0.00,SCT,,0.01,WeatherDisplay:10.37,2013-11-07 01:20:00,
2013-11-06 20:31:00,64.0,58.4,30.10,WSW,251,1.0,4.0,82,0.00,SCT,,0.01,WeatherDisplay:10.37,2013-11-07 01:31:00,
2013-11-06 20:40:00,63.9,58.3,30.10,WSW,243,0.0,3.0,82,0.00,OVC,,0.01,WeatherDisplay:10.37,2013-11-07 01:40:00,
2013-11-06 20:50:00,63.8,58.2,30.10,SW,234,0.0,3.0,82,0.00,BKN,,0.01,WeatherDisplay:10.37,2013-11-07 01:50:00,
2013-11-06 21:01:00,63.9,58.3,30.10,SW,234,1.0,3.0,82,0.00,BKN,,0.01,WeatherDisplay:10.37,2013-11-07 02:01:00,
2013-11-06 21:10:00,64.1,58.5,30.10,SW,227,2.0,5.0,82,0.00,BKN,,0.01,WeatherDisplay:10.37,2013-11-07 02:10:00,
2013-11-06 21:20:00,64.3,58.7,30.10,SW,233,2.0,5.0,82,0.00,BKN,,0.01,WeatherDisplay:10.37,2013-11-07 02:20:00,
2013-11-06 21:31:00,64.5,58.9,30.10,SW,235,2.0,5.0,82,0.00,BKN,,0.01,WeatherDisplay:10.37,2013-11-07 02:31:00,
2013-11-06 21:40:00,64.5,58.5,30.10,SSW,203,1.0,4.0,81,0.00,OVC,,0.01,WeatherDisplay:10.37,2013-11-07 02:40:00,
2013-11-06 21:50:00,64.7,58.7,30.10,South,179,0.0,8.0,81,0.00,OVC,,0.01,WeatherDisplay:10.37,2013-11-07 02:50:00,
2013-11-06 22:01:00,64.7,58.4,30.09,SSW,209,2.0,7.0,80,0.00,OVC,,0.01,WeatherDisplay:10.37,2013-11-07 03:01:00,
2013-11-06 22:10:00,64.5,58.2,30.09,SW,224,2.0,6.0,80,0.00,OVC,,0.01,WeatherDisplay:10.37,2013-11-07 03:10:00,
2013-11-06 22:20:00,64.2,58.3,30.09,SW,229,1.0,6.0,81,0.00,OVC,,0.01,WeatherDisplay:10.37,2013-11-07 03:20:00,
2013-11-06 22:31:00,63.9,58.3,30.09,SW,234,2.0,5.0,82,0.00,OVC,,0.01,WeatherDisplay:10.37,2013-11-07 03:31:00,
2013-11-06 22:40:00,63.7,58.4,30.09,SW,234,2.0,4.0,83,0.00,OVC,,0.01,WeatherDisplay:10.37,2013-11-07 03:40:00,
2013-11-06 22:50:00,63.7,58.4,30.09,WSW,245,2.0,5.0,83,0.00,BKN,,0.01,WeatherDisplay:10.37,2013-11-07 03:50:00,
2013-11-06 23:01:00,63.6,58.4,30.10,WSW,250,2.0,7.0,83,0.00,BKN,,0.01,WeatherDisplay:10.37,2013-11-07 04:01:00,
2013-11-06 23:10:00,63.6,58.3,30.09,SW,226,1.0,5.0,83,0.00,BKN,,0.01,WeatherDisplay:10.37,2013-11-07 04:10:00,
2013-11-06 23:20:00,63.6,58.3,30.09,SW,231,3.0,7.0,83,0.00,BKN,,0.01,WeatherDisplay:10.37,2013-11-07 04:20:00,
2013-11-06 23:31:00,63.6,58.3,30.08,SW,214,1.0,5.0,83,0.00,BKN,,0.01,WeatherDisplay:10.37,2013-11-07 04:31:00,
2013-11-06 23:40:00,63.5,58.3,30.08,SW,236,0.0,4.0,83,0.00,OVC,,0.01,WeatherDisplay:10.37,2013-11-07 04:40:00,
2013-11-06 23:50:00,63.5,58.2,30.08,SW,228,2.0,5.0,83,0.00,OVC,,0.01,WeatherDisplay:10.37,2013-11-07 04:50:00,